Nearby METAR Reports

 

EKAH - Tirstrup (civ/Mi, Denmark
Distance from station: SSW 25km
Updated: 01/07/2022 09:50
Mostly cloudy
Mostly cloudy
 Wind from S
Wind: S 13 km/h
Temperature: 21°C
Dew Point: 17°C
Humidity: 78%
Barometer: 1013 hPa
Clouds: Mostly cloudy
Visibility: 10 km
Cloud details: Mostly cloudy 274 m
Mostly cloudy 3658 m
2022/07/01 07:50 EKAH 010750Z AUTO 17007KT 100V210 9999 BKN009/// BKN120/// 21/17 Q1013
EKYT - Alborg, Denmark
Distance from station: NW 91km
Updated: 01/07/2022 09:50
Clear
Clear
 Wind from SSE
Wind: SSE 17 km/h
Temperature: 24°C
Dew Point: 15°C
Humidity: 57%
Barometer: 1011 hPa
Clouds: Clear
Visibility: 10 km
2022/07/01 07:50 EKYT 010750Z AUTO 16009KT 130V190 9999 NCD 24/15 Q1011
EKKA - Karup (dan-Afb), Denmark
Distance from station: W 107km
Updated: 01/07/2022 09:50
Overcast
Overcast
 Wind from ESE
Wind: ESE 11 km/h
Temperature: 19°C
Dew Point: 17°C
Humidity: 88%
Barometer: 1011 hPa
Clouds: Overcast
Visibility: 10 km
Cloud details: Partly cloudy 244 m
Overcast 1707 m
2022/07/01 07:50 EKKA 010750Z AUTO 12006KT 100V160 9999 SCT008/// OVC056/// 19/17 Q1011 TEMPO SCT008 BKN040
 
EKOD - Odense/Beldringe, Denmark
Distance from station: SSW 116km
Updated: 01/07/2022 09:50
Light rain, Showers, Mostly cloudy
Light rain, Showers, Mostly cloudy
 Wind from S
Wind: S 11 km/h
Temperature: 20°C
Dew Point: 19°C
Humidity: 94%
Barometer: 1012 hPa
Summary: Light rain, Showers
Clouds: Mostly cloudy
Visibility: 10 km
Cloud details: Partly cloudy 244 m
Mostly cloudy 305 m
Mostly cloudy 1402 m
2022/07/01 07:50 EKOD 010750Z 17006KT 140V220 9999 -SHRA SCT008 BKN010 BKN046 20/19 Q1012
EKBI - Billund Airport, Denmark
Distance from station: SW 134km
Updated: 01/07/2022 09:50
Mostly cloudy
Mostly cloudy
 Wind from S
Wind: S 17 km/h
Temperature: 21°C
Dew Point: 17°C
Humidity: 78%
Barometer: 1011 hPa
Clouds: Mostly cloudy
Visibility: 10 km
Cloud details: Partly cloudy 427 m
Mostly cloudy 1250 m
2022/07/01 07:50 EKBI 010750Z AUTO 18009KT 140V220 9999 SCT014/// BKN041/// 21/17 Q1011
EKCH - Copenhagen/Kastr, Denmark
Distance from station: SE 148km
Updated: 01/07/2022 09:50
Mostly cloudy
Mostly cloudy
 Wind from SSE
Wind: SSE 13 km/h
Temperature: 20°C
Dew Point: 17°C
Humidity: 83%
Barometer: 1013 hPa
Clouds: Mostly cloudy
Visibility: 10 km
Cloud details: Few Clouds 244 m
Mostly cloudy 366 m
2022/07/01 07:50 EKCH 010750Z 16007KT 9999 FEW008 BKN012 20/17 Q1013 TEMPO BKN008